createdAt,value
2023-05-23T11:43:53.284Z,97740.00
2023-05-23T11:46:22.729Z,97737.78
2023-05-23T11:48:54.689Z,97734.50
2023-05-23T11:51:24.142Z,97770.59
2023-05-23T11:54:07.668Z,97784.63
2023-05-23T12:01:53.267Z,97811.81
2023-05-23T12:04:22.941Z,97822.34
2023-05-23T12:06:52.911Z,97815.50
2023-05-23T12:09:48.587Z,97810.19
2023-05-23T12:12:44.721Z,97818.41
2023-05-23T12:15:14.853Z,97819.31
2023-05-23T12:17:47.395Z,97814.34
2023-05-23T12:20:23.222Z,97814.75
2023-05-23T12:22:56.699Z,97812.84
2023-05-23T12:25:26.743Z,97806.81
2023-05-23T12:27:58.327Z,97827.84
2023-05-23T12:30:27.457Z,97825.63
2023-05-23T12:32:58.160Z,97831.38
2023-05-23T12:35:27.487Z,97810.13
2023-05-23T12:37:58.881Z,97817.69
2023-05-23T12:40:30.409Z,97825.09
2023-05-23T12:42:59.823Z,97854.88
2023-05-23T12:45:34.295Z,97855.03
2023-05-23T12:48:04.877Z,97857.72
2023-05-23T12:50:34.078Z,97852.34
2023-05-23T12:53:03.191Z,97852.84
2023-05-23T12:55:32.343Z,97845.75
2023-05-23T12:58:01.378Z,97860.25
2023-05-23T13:00:30.376Z,97888.38
2023-05-23T13:02:59.440Z,97896.91
2023-05-23T13:05:30.143Z,97899.75
2023-05-23T13:08:00.314Z,97901.34
2023-05-23T13:10:31.738Z,97914.59
2023-05-23T13:13:21.830Z,97915.84
2023-05-23T13:15:51.801Z,97920.91
2023-05-23T13:18:21.198Z,97922.78
2023-05-23T13:20:51.817Z,97919.00
2023-05-23T13:23:21.306Z,97909.53
2023-05-23T13:25:51.238Z,97901.00
2023-05-23T13:28:20.361Z,97894.69
2023-05-23T13:30:49.707Z,97874.41
2023-05-23T13:33:35.093Z,97859.50
2023-05-23T13:37:00.792Z,97845.75
2023-05-23T13:40:22.015Z,97866.59
2023-05-23T13:42:52.831Z,97879.44
2023-05-23T13:46:14.630Z,97891.47
2023-05-23T13:48:43.820Z,97893.03
2023-05-23T13:51:13.165Z,97887.25
2023-05-23T13:53:46.771Z,97880.59
2023-05-23T13:56:22.942Z,97881.91
2023-05-23T13:58:52.268Z,97862.66
2023-05-23T14:01:27.780Z,97857.06
2023-05-23T14:03:57.319Z,97858.69
2023-05-23T14:06:28.303Z,97857.34
2023-05-23T14:08:58.791Z,97859.78
2023-05-23T14:11:30.132Z,97857.97
2023-05-23T14:13:59.290Z,97863.03
2023-05-23T14:16:32.546Z,97868.44
2023-05-23T14:19:01.774Z,97874.19
2023-05-23T14:21:37.402Z,97872.91
2023-05-23T14:24:13.808Z,97872.00
2023-05-23T14:26:43.023Z,97870.25
2023-05-23T14:29:17.916Z,97874.03
2023-05-23T14:31:47.089Z,97872.22
2023-05-23T14:34:19.899Z,97864.72
2023-05-23T14:36:48.866Z,97865.66
2023-05-23T14:39:21.169Z,97863.47
2023-05-23T14:41:53.101Z,97864.34
2023-05-23T14:44:24.136Z,97855.69
2023-05-23T14:46:53.196Z,97861.59
2023-05-23T14:49:27.865Z,97859.09
2023-05-23T14:51:56.818Z,97863.16
2023-05-23T14:54:27.578Z,97862.63
2023-05-23T14:56:56.833Z,97872.53
2023-05-23T14:59:31.931Z,97848.91
2023-05-23T15:02:01.220Z,97848.63
2023-05-23T15:04:32.040Z,97847.47
2023-05-23T15:07:01.913Z,97838.25
2023-05-23T15:09:41.818Z,97844.13
2023-05-23T15:12:26.176Z,97843.66
2023-05-23T15:15:26.077Z,97834.41
2023-05-23T15:18:42.019Z,97836.34
2023-05-23T15:21:17.519Z,97845.91
2023-05-23T15:24:57.000Z,97855.72
2023-05-23T15:28:04.222Z,97855.16
2023-05-23T15:31:09.833Z,97858.72
2023-05-23T15:34:15.132Z,97870.31
2023-05-23T15:36:44.517Z,97877.84
2023-05-23T15:39:14.010Z,97884.94
2023-05-23T15:41:49.377Z,97903.50
2023-05-23T15:44:21.974Z,97897.34
2023-05-23T15:46:57.472Z,97891.47
2023-05-23T15:49:28.340Z,97894.19
2023-05-23T15:52:03.693Z,97890.97
2023-05-23T15:54:32.882Z,97902.38
2023-05-23T15:57:20.290Z,97903.94
2023-05-23T15:59:54.079Z,97907.53
2023-05-23T16:02:23.444Z,97908.00
2023-05-23T16:04:55.161Z,97907.34
2023-05-23T16:07:24.383Z,97899.28
2023-05-23T16:09:53.444Z,97910.84
2023-05-23T16:12:22.482Z,97916.06
2023-05-23T16:14:51.391Z,97919.16
2023-05-23T16:17:22.420Z,97920.16
2023-05-23T16:19:51.597Z,97924.94
2023-05-23T16:22:20.620Z,97928.44
2023-05-23T16:24:49.656Z,97928.72
2023-05-23T16:27:18.695Z,97924.63
2023-05-23T16:29:48.079Z,97935.28
2023-05-23T16:32:17.204Z,97925.25
2023-05-23T16:34:52.873Z,97920.69
2023-05-23T16:37:25.168Z,97931.91
2023-05-23T16:39:54.129Z,97927.72
2023-05-23T16:42:23.496Z,97922.97
2023-05-23T16:44:52.621Z,97933.25
2023-05-23T16:47:21.704Z,97932.72
2023-05-23T16:49:55.273Z,97929.63
2023-05-23T16:52:24.530Z,97924.31
2023-05-23T16:54:55.708Z,97917.03
2023-05-23T16:57:26.207Z,97897.78
2023-05-23T16:59:55.228Z,97901.91
2023-05-23T17:02:24.434Z,97902.56
2023-05-23T17:04:55.744Z,97893.13
2023-05-23T17:07:26.635Z,97890.56
2023-05-23T17:09:55.939Z,97881.44
2023-05-23T17:12:24.952Z,97870.88
2023-05-23T17:14:55.322Z,97881.41
2023-05-23T17:17:24.402Z,97880.16
2023-05-23T17:20:06.468Z,97883.97
2023-05-23T17:22:35.763Z,97893.63
2023-05-23T17:25:09.139Z,97880.66
2023-05-23T17:27:38.414Z,97878.91
2023-05-23T17:30:09.154Z,97879.09
2023-05-23T17:32:38.303Z,97895.66
2023-05-23T17:35:10.181Z,97882.41
2023-05-23T17:37:43.285Z,97885.88
2023-05-23T17:40:13.334Z,97886.81
2023-05-23T17:42:43.566Z,97888.38
2023-05-23T17:45:13.253Z,97891.53
2023-05-23T17:47:42.999Z,97897.38
2023-05-23T17:50:14.111Z,97913.66
2023-05-23T17:52:43.259Z,97913.94
2023-05-23T17:55:12.504Z,97914.28
2023-05-23T17:57:41.693Z,97917.88
2023-05-23T18:00:18.954Z,97923.41
2023-05-23T18:02:51.570Z,97920.44
2023-05-23T18:05:23.717Z,97925.94
2023-05-23T18:07:53.167Z,97920.84
2023-05-23T18:10:22.159Z,97915.16
2023-05-23T18:12:51.329Z,97920.34
2023-05-23T18:15:24.227Z,97927.94
2023-05-23T18:17:57.488Z,97923.19
2023-05-23T18:20:28.201Z,97931.56
2023-05-23T18:22:57.545Z,97935.34
2023-05-23T18:25:36.498Z,97923.63
2023-05-23T18:28:06.229Z,97926.91
2023-05-23T18:30:35.311Z,97928.00
2023-05-23T18:33:04.650Z,97925.44
2023-05-23T18:35:35.384Z,97931.44
2023-05-23T18:38:04.632Z,97931.75
2023-05-23T18:40:33.624Z,97931.28
2023-05-23T18:43:05.099Z,97942.91
2023-05-23T18:45:34.558Z,97944.66
2023-05-23T18:48:06.564Z,97944.63
2023-05-23T18:50:40.274Z,97943.69
2023-05-23T18:53:09.863Z,97943.03
2023-05-23T18:55:44.705Z,97949.69
2023-05-23T18:58:14.041Z,97948.72
2023-05-23T19:00:44.693Z,97952.94
2023-05-23T19:03:16.636Z,97963.50
2023-05-23T19:05:47.346Z,97961.91
2023-05-23T19:08:17.876Z,97971.69
2023-05-23T19:10:46.910Z,97974.81
2023-05-23T19:13:15.922Z,97978.25
2023-05-23T19:15:45.808Z,97968.66
2023-05-23T19:18:15.013Z,97972.47
2023-05-23T19:20:44.275Z,97990.94
2023-05-23T19:23:17.892Z,97976.97
2023-05-23T19:25:46.975Z,97975.41
2023-05-23T19:28:16.309Z,97979.31
2023-05-23T19:30:47.851Z,97985.59
2023-05-23T19:33:16.967Z,97984.59
2023-05-23T19:35:46.236Z,97986.31
2023-05-23T19:38:16.728Z,97982.38
2023-05-23T19:40:48.585Z,97985.84
2023-05-23T19:43:23.277Z,97984.84
2023-05-23T19:46:07.829Z,97981.59
2023-05-23T19:48:37.011Z,97978.03
2023-05-23T19:51:06.918Z,97982.38
2023-05-23T19:53:37.462Z,97983.56
2023-05-23T19:56:07.043Z,97974.06
2023-05-23T19:58:36.437Z,97976.69
2023-05-23T20:01:05.924Z,97978.28
2023-05-23T20:03:38.549Z,97975.53
2023-05-23T20:06:07.686Z,97979.59
2023-05-23T20:08:38.327Z,97988.31
2023-05-23T20:11:07.629Z,97990.72
2023-05-23T20:13:37.774Z,97977.75
2023-05-23T20:16:10.522Z,97977.59
2023-05-23T20:18:42.151Z,97990.16
2023-05-23T20:21:11.543Z,97984.03
2023-05-23T20:23:43.505Z,97985.81
2023-05-23T20:26:12.594Z,97993.00
2023-05-23T20:28:41.840Z,98000.19
2023-05-23T20:31:11.267Z,97998.75
2023-05-23T20:33:40.401Z,97992.78
2023-05-23T20:36:09.588Z,97987.78
2023-05-23T20:38:42.828Z,97996.63
2023-05-23T20:41:14.184Z,97993.66
2023-05-23T20:43:44.680Z,97996.06
2023-05-23T20:46:14.694Z,98002.00
2023-05-23T20:48:43.928Z,98006.31
2023-05-23T20:51:13.652Z,98006.19
2023-05-23T20:53:44.253Z,98014.91
2023-05-23T20:56:14.271Z,98025.97
2023-05-23T20:58:45.783Z,98011.47
2023-05-23T21:01:15.362Z,98022.56
2023-05-23T21:03:44.442Z,98016.53
2023-05-23T21:06:13.428Z,98010.06
2023-05-23T21:08:44.009Z,98013.47
2023-05-23T21:11:13.164Z,98019.28
2023-05-23T21:13:42.156Z,98023.56
2023-05-23T21:16:14.285Z,98017.16
2023-05-23T21:18:43.390Z,98032.88
2023-05-23T21:21:12.446Z,98023.00
2023-05-23T21:23:43.033Z,98024.81
2023-05-23T21:26:21.049Z,98029.16
2023-05-23T21:28:51.113Z,98029.88
2023-05-23T21:31:37.173Z,98034.22
2023-05-23T21:34:23.369Z,98028.25
2023-05-23T21:36:55.028Z,98031.16
2023-05-23T21:39:26.187Z,98028.66
2023-05-23T21:41:59.471Z,98021.53
2023-05-23T21:44:30.375Z,98020.22
2023-05-23T21:47:00.816Z,98026.41
2023-05-23T21:49:32.778Z,98024.94
2023-05-23T21:52:02.005Z,98027.00
2023-05-23T21:54:31.763Z,98030.16
2023-05-23T21:57:02.423Z,98028.00
2023-05-23T21:59:31.603Z,98028.91
2023-05-23T22:02:01.076Z,98034.13
2023-05-23T22:04:30.151Z,98028.25
2023-05-23T22:06:59.937Z,98028.91
2023-05-23T22:09:29.391Z,98022.69
2023-05-23T22:11:58.938Z,98027.84
2023-05-23T22:14:29.827Z,98028.59
2023-05-23T22:17:02.198Z,98032.03
2023-05-23T22:19:31.534Z,98029.53
2023-05-23T22:22:00.737Z,98029.09
2023-05-23T22:24:30.765Z,98034.28
2023-05-23T22:27:01.049Z,98032.56
2023-05-23T22:29:31.762Z,98030.84
2023-05-23T22:32:01.079Z,98025.31
2023-05-23T22:34:30.459Z,98049.06
2023-05-23T22:37:00.385Z,98052.38
2023-05-23T22:39:29.583Z,98052.25
2023-05-23T22:42:01.981Z,98041.50
2023-05-23T22:44:32.538Z,98047.16
2023-05-23T22:47:03.818Z,98035.50
2023-05-23T22:49:32.964Z,98037.06
2023-05-23T22:52:02.013Z,98036.28
2023-05-23T22:54:31.063Z,98040.25
2023-05-23T22:57:00.057Z,98041.41
2023-05-23T22:59:30.823Z,98042.97
2023-05-23T23:02:01.260Z,98045.81
2023-05-23T23:04:33.286Z,98050.38
2023-05-23T23:07:02.686Z,98059.22
2023-05-23T23:09:31.730Z,98058.06
2023-05-23T23:12:01.342Z,98059.91
2023-05-23T23:14:30.311Z,98053.16
2023-05-23T23:17:00.764Z,98059.75
2023-05-23T23:19:31.397Z,98059.97
2023-05-23T23:22:00.462Z,98067.25
2023-05-23T23:24:29.904Z,98064.84
2023-05-23T23:26:59.088Z,98070.44
2023-05-23T23:29:28.160Z,98066.75
2023-05-23T23:31:59.631Z,98071.66
2023-05-23T23:34:32.764Z,98068.81
2023-05-23T23:37:01.768Z,98072.22
2023-05-23T23:39:30.783Z,98070.41
2023-05-23T23:41:59.919Z,98073.69
2023-05-23T23:44:29.037Z,98064.75
2023-05-23T23:46:58.062Z,98071.44
2023-05-23T23:49:29.349Z,98057.72
2023-05-23T23:52:00.142Z,98060.25
2023-05-23T23:54:29.220Z,98066.00
2023-05-23T23:56:58.259Z,98073.69
2023-05-23T23:59:27.438Z,98081.41
